sensor_id;sensor_type;location;lat;lon;timestamp;P1;durP1;ratioP1;P2;durP2;ratioP2
19002;SDS011;9634;51.040;13.794;2023-01-20T00:03:16;19.13;;;9.00;;
19002;SDS011;9634;51.040;13.794;2023-01-20T00:08:18;14.40;;;8.60;;
19002;SDS011;9634;51.040;13.794;2023-01-20T00:13:21;15.37;;;9.00;;
19002;SDS011;9634;51.040;13.794;2023-01-20T00:18:24;16.07;;;8.67;;
19002;SDS011;9634;51.040;13.794;2023-01-20T00:23:26;14.60;;;8.33;;
19002;SDS011;9634;51.040;13.794;2023-01-20T00:28:30;16.53;;;8.33;;
19002;SDS011;9634;51.040;13.794;2023-01-20T00:33:32;15.50;;;8.77;;
19002;SDS011;9634;51.040;13.794;2023-01-20T00:38:34;16.90;;;9.33;;
19002;SDS011;9634;51.040;13.794;2023-01-20T00:43:38;13.93;;;7.93;;
19002;SDS011;9634;51.040;13.794;2023-01-20T00:48:40;16.20;;;8.30;;
19002;SDS011;9634;51.040;13.794;2023-01-20T00:53:43;16.03;;;8.40;;
19002;SDS011;9634;51.040;13.794;2023-01-20T00:58:47;16.03;;;8.40;;
19002;SDS011;9634;51.040;13.794;2023-01-20T01:03:50;14.80;;;8.57;;
19002;SDS011;9634;51.040;13.794;2023-01-20T01:08:53;17.23;;;8.30;;
19002;SDS011;9634;51.040;13.794;2023-01-20T01:13:57;16.47;;;8.63;;
19002;SDS011;9634;51.040;13.794;2023-01-20T01:18:59;15.63;;;8.17;;
19002;SDS011;9634;51.040;13.794;2023-01-20T01:24:02;14.50;;;8.30;;
19002;SDS011;9634;51.040;13.794;2023-01-20T01:29:06;13.83;;;7.93;;
19002;SDS011;9634;51.040;13.794;2023-01-20T01:34:08;16.03;;;8.73;;
19002;SDS011;9634;51.040;13.794;2023-01-20T01:39:10;16.80;;;8.57;;
19002;SDS011;9634;51.040;13.794;2023-01-20T01:44:14;16.40;;;8.53;;
19002;SDS011;9634;51.040;13.794;2023-01-20T01:49:18;18.27;;;8.87;;
19002;SDS011;9634;51.040;13.794;2023-01-20T01:54:23;16.80;;;9.57;;
19002;SDS011;9634;51.040;13.794;2023-01-20T01:59:31;16.30;;;8.37;;
19002;SDS011;9634;51.040;13.794;2023-01-20T02:04:34;14.43;;;8.20;;
19002;SDS011;9634;51.040;13.794;2023-01-20T02:09:37;15.87;;;8.53;;
19002;SDS011;9634;51.040;13.794;2023-01-20T02:14:42;15.80;;;8.27;;
19002;SDS011;9634;51.040;13.794;2023-01-20T02:20:00;16.87;;;8.83;;
19002;SDS011;9634;51.040;13.794;2023-01-20T02:25:37;14.53;;;8.40;;
19002;SDS011;9634;51.040;13.794;2023-01-20T02:31:00;13.90;;;8.23;;
19002;SDS011;9634;51.040;13.794;2023-01-20T02:36:25;16.23;;;8.67;;
19002;SDS011;9634;51.040;13.794;2023-01-20T02:41:34;14.90;;;8.67;;
19002;SDS011;9634;51.040;13.794;2023-01-20T02:46:44;16.00;;;9.03;;
19002;SDS011;9634;51.040;13.794;2023-01-20T02:51:55;16.90;;;9.40;;
19002;SDS011;9634;51.040;13.794;2023-01-20T02:57:01;17.23;;;10.23;;
19002;SDS011;9634;51.040;13.794;2023-01-20T03:02:07;21.63;;;11.20;;
19002;SDS011;9634;51.040;13.794;2023-01-20T03:07:12;19.80;;;10.27;;
19002;SDS011;9634;51.040;13.794;2023-01-20T03:12:17;20.13;;;10.83;;
19002;SDS011;9634;51.040;13.794;2023-01-20T03:17:22;16.97;;;9.90;;
19002;SDS011;9634;51.040;13.794;2023-01-20T03:22:26;17.07;;;9.83;;
19002;SDS011;9634;51.040;13.794;2023-01-20T03:27:29;19.67;;;10.20;;
19002;SDS011;9634;51.040;13.794;2023-01-20T03:32:32;16.67;;;9.67;;
19002;SDS011;9634;51.040;13.794;2023-01-20T03:37:36;19.17;;;10.17;;
19002;SDS011;9634;51.040;13.794;2023-01-20T03:42:40;20.03;;;11.00;;
19002;SDS011;9634;51.040;13.794;2023-01-20T03:47:49;22.50;;;11.23;;
19002;SDS011;9634;51.040;13.794;2023-01-20T03:52:59;17.40;;;10.67;;
19002;SDS011;9634;51.040;13.794;2023-01-20T03:58:07;21.20;;;10.73;;
19002;SDS011;9634;51.040;13.794;2023-01-20T04:03:13;19.07;;;11.57;;
19002;SDS011;9634;51.040;13.794;2023-01-20T04:08:19;20.13;;;11.17;;
19002;SDS011;9634;51.040;13.794;2023-01-20T04:13:25;18.97;;;10.67;;
19002;SDS011;9634;51.040;13.794;2023-01-20T04:18:27;18.63;;;11.17;;
19002;SDS011;9634;51.040;13.794;2023-01-20T04:23:31;23.53;;;11.90;;
19002;SDS011;9634;51.040;13.794;2023-01-20T04:28:37;19.33;;;11.33;;
19002;SDS011;9634;51.040;13.794;2023-01-20T04:33:39;21.17;;;11.77;;
19002;SDS011;9634;51.040;13.794;2023-01-20T04:38:43;22.67;;;12.57;;
19002;SDS011;9634;51.040;13.794;2023-01-20T04:43:45;24.97;;;11.40;;
19002;SDS011;9634;51.040;13.794;2023-01-20T04:48:47;23.93;;;12.07;;
19002;SDS011;9634;51.040;13.794;2023-01-20T04:53:51;22.40;;;12.43;;
19002;SDS011;9634;51.040;13.794;2023-01-20T04:58:57;22.73;;;12.03;;
19002;SDS011;9634;51.040;13.794;2023-01-20T05:03:59;24.73;;;12.53;;
19002;SDS011;9634;51.040;13.794;2023-01-20T05:09:03;24.93;;;12.50;;
19002;SDS011;9634;51.040;13.794;2023-01-20T05:14:05;26.33;;;13.13;;
19002;SDS011;9634;51.040;13.794;2023-01-20T05:19:09;25.63;;;12.90;;
19002;SDS011;9634;51.040;13.794;2023-01-20T05:24:13;23.17;;;12.50;;
19002;SDS011;9634;51.040;13.794;2023-01-20T05:29:15;21.60;;;12.30;;
19002;SDS011;9634;51.040;13.794;2023-01-20T05:34:17;25.20;;;12.37;;
19002;SDS011;9634;51.040;13.794;2023-01-20T05:39:21;23.73;;;13.50;;
19002;SDS011;9634;51.040;13.794;2023-01-20T05:44:23;26.43;;;12.87;;
19002;SDS011;9634;51.040;13.794;2023-01-20T05:49:26;23.23;;;12.73;;
19002;SDS011;9634;51.040;13.794;2023-01-20T05:54:29;26.77;;;14.17;;
19002;SDS011;9634;51.040;13.794;2023-01-20T05:59:32;25.83;;;14.27;;
19002;SDS011;9634;51.040;13.794;2023-01-20T06:04:34;25.47;;;12.90;;
19002;SDS011;9634;51.040;13.794;2023-01-20T06:09:38;27.27;;;13.80;;
19002;SDS011;9634;51.040;13.794;2023-01-20T06:14:40;26.47;;;14.63;;
19002;SDS011;9634;51.040;13.794;2023-01-20T06:19:42;29.37;;;14.27;;
19002;SDS011;9634;51.040;13.794;2023-01-20T06:24:46;30.07;;;15.03;;
19002;SDS011;9634;51.040;13.794;2023-01-20T06:29:48;28.17;;;14.47;;
19002;SDS011;9634;51.040;13.794;2023-01-20T06:34:51;24.70;;;13.87;;
19002;SDS011;9634;51.040;13.794;2023-01-20T06:39:57;28.40;;;14.77;;
19002;SDS011;9634;51.040;13.794;2023-01-20T06:44:59;28.90;;;16.20;;
19002;SDS011;9634;51.040;13.794;2023-01-20T06:50:01;27.67;;;14.77;;
19002;SDS011;9634;51.040;13.794;2023-01-20T06:55:05;28.90;;;14.60;;
19002;SDS011;9634;51.040;13.794;2023-01-20T07:00:08;28.67;;;15.17;;
19002;SDS011;9634;51.040;13.794;2023-01-20T07:05:11;30.77;;;15.93;;
19002;SDS011;9634;51.040;13.794;2023-01-20T07:10:15;30.80;;;15.33;;
19002;SDS011;9634;51.040;13.794;2023-01-20T07:15:17;30.07;;;16.03;;
19002;SDS011;9634;51.040;13.794;2023-01-20T07:20:20;30.43;;;15.43;;
19002;SDS011;9634;51.040;13.794;2023-01-20T07:25:23;34.87;;;15.73;;
19002;SDS011;9634;51.040;13.794;2023-01-20T07:30:26;30.03;;;16.00;;
19002;SDS011;9634;51.040;13.794;2023-01-20T07:35:28;30.27;;;14.93;;
19002;SDS011;9634;51.040;13.794;2023-01-20T07:40:31;26.50;;;13.70;;
19002;SDS011;9634;51.040;13.794;2023-01-20T07:45:34;28.17;;;14.97;;
19002;SDS011;9634;51.040;13.794;2023-01-20T07:50:36;28.50;;;14.63;;
19002;SDS011;9634;51.040;13.794;2023-01-20T07:55:39;29.10;;;14.90;;
19002;SDS011;9634;51.040;13.794;2023-01-20T08:00:42;30.20;;;16.00;;
19002;SDS011;9634;51.040;13.794;2023-01-20T08:05:47;29.27;;;15.63;;
19002;SDS011;9634;51.040;13.794;2023-01-20T08:10:53;34.33;;;16.03;;
19002;SDS011;9634;51.040;13.794;2023-01-20T08:15:58;25.67;;;14.57;;
19002;SDS011;9634;51.040;13.794;2023-01-20T08:21:01;30.80;;;14.63;;
19002;SDS011;9634;51.040;13.794;2023-01-20T08:26:08;26.43;;;14.37;;
19002;SDS011;9634;51.040;13.794;2023-01-20T08:31:11;27.73;;;14.67;;
19002;SDS011;9634;51.040;13.794;2023-01-20T08:36:15;27.37;;;14.37;;
19002;SDS011;9634;51.040;13.794;2023-01-20T08:41:22;26.47;;;14.00;;
19002;SDS011;9634;51.040;13.794;2023-01-20T08:46:26;28.23;;;14.40;;
19002;SDS011;9634;51.040;13.794;2023-01-20T08:51:29;28.77;;;14.03;;
19002;SDS011;9634;51.040;13.794;2023-01-20T08:56:33;30.20;;;14.07;;
19002;SDS011;9634;51.040;13.794;2023-01-20T09:01:36;35.40;;;14.23;;
19002;SDS011;9634;51.040;13.794;2023-01-20T09:06:39;28.20;;;12.97;;
19002;SDS011;9634;51.040;13.794;2023-01-20T09:11:44;26.93;;;13.70;;
19002;SDS011;9634;51.040;13.794;2023-01-20T09:16:50;31.67;;;13.03;;
19002;SDS011;9634;51.040;13.794;2023-01-20T09:21:52;27.20;;;13.63;;
19002;SDS011;9634;51.040;13.794;2023-01-20T09:26:56;32.17;;;14.53;;
19002;SDS011;9634;51.040;13.794;2023-01-20T09:31:59;29.20;;;14.37;;
19002;SDS011;9634;51.040;13.794;2023-01-20T09:37:01;30.13;;;14.67;;
19002;SDS011;9634;51.040;13.794;2023-01-20T09:42:23;27.73;;;13.60;;
19002;SDS011;9634;51.040;13.794;2023-01-20T09:48:01;28.07;;;13.37;;
19002;SDS011;9634;51.040;13.794;2023-01-20T09:53:39;28.70;;;13.17;;
19002;SDS011;9634;51.040;13.794;2023-01-20T09:58:54;25.00;;;12.20;;
19002;SDS011;9634;51.040;13.794;2023-01-20T10:04:02;29.27;;;13.50;;
19002;SDS011;9634;51.040;13.794;2023-01-20T10:09:13;31.80;;;13.67;;
19002;SDS011;9634;51.040;13.794;2023-01-20T10:14:24;31.97;;;14.40;;
19002;SDS011;9634;51.040;13.794;2023-01-20T10:19:34;31.73;;;13.53;;
19002;SDS011;9634;51.040;13.794;2023-01-20T10:24:43;32.37;;;14.73;;
19002;SDS011;9634;51.040;13.794;2023-01-20T10:29:55;29.00;;;12.90;;
19002;SDS011;9634;51.040;13.794;2023-01-20T10:35:02;26.40;;;13.10;;
19002;SDS011;9634;51.040;13.794;2023-01-20T10:40:16;25.57;;;13.37;;
19002;SDS011;9634;51.040;13.794;2023-01-20T10:45:28;31.20;;;13.10;;
19002;SDS011;9634;51.040;13.794;2023-01-20T10:50:49;28.03;;;12.77;;
19002;SDS011;9634;51.040;13.794;2023-01-20T10:56:01;30.83;;;14.33;;
19002;SDS011;9634;51.040;13.794;2023-01-20T11:01:13;31.23;;;13.90;;
19002;SDS011;9634;51.040;13.794;2023-01-20T11:06:17;29.87;;;13.90;;
19002;SDS011;9634;51.040;13.794;2023-01-20T11:11:21;34.77;;;14.13;;
19002;SDS011;9634;51.040;13.794;2023-01-20T11:16:26;33.67;;;15.20;;
19002;SDS011;9634;51.040;13.794;2023-01-20T11:21:29;31.93;;;14.53;;
19002;SDS011;9634;51.040;13.794;2023-01-20T11:26:35;33.03;;;14.13;;
19002;SDS011;9634;51.040;13.794;2023-01-20T11:31:40;34.83;;;15.07;;
19002;SDS011;9634;51.040;13.794;2023-01-20T11:36:45;35.33;;;15.23;;
19002;SDS011;9634;51.040;13.794;2023-01-20T11:41:47;30.33;;;14.20;;
19002;SDS011;9634;51.040;13.794;2023-01-20T11:46:53;33.00;;;15.47;;
19002;SDS011;9634;51.040;13.794;2023-01-20T11:51:57;34.20;;;16.73;;
19002;SDS011;9634;51.040;13.794;2023-01-20T11:57:02;40.03;;;17.17;;
19002;SDS011;9634;51.040;13.794;2023-01-20T12:02:20;40.73;;;17.63;;
19002;SDS011;9634;51.040;13.794;2023-01-20T12:07:25;46.00;;;18.33;;
19002;SDS011;9634;51.040;13.794;2023-01-20T12:12:31;37.30;;;16.67;;
19002;SDS011;9634;51.040;13.794;2023-01-20T12:17:42;43.10;;;18.00;;
19002;SDS011;9634;51.040;13.794;2023-01-20T12:22:59;39.43;;;17.87;;
19002;SDS011;9634;51.040;13.794;2023-01-20T12:28:09;40.30;;;17.87;;
19002;SDS011;9634;51.040;13.794;2023-01-20T12:33:24;37.93;;;17.43;;
19002;SDS011;9634;51.040;13.794;2023-01-20T12:38:29;43.73;;;18.30;;
19002;SDS011;9634;51.040;13.794;2023-01-20T12:43:38;37.77;;;17.50;;
19002;SDS011;9634;51.040;13.794;2023-01-20T12:48:58;41.43;;;17.97;;
19002;SDS011;9634;51.040;13.794;2023-01-20T12:59:46;47.17;;;18.73;;
19002;SDS011;9634;51.040;13.794;2023-01-20T13:04:58;46.27;;;18.97;;
19002;SDS011;9634;51.040;13.794;2023-01-20T13:10:28;41.80;;;18.57;;
19002;SDS011;9634;51.040;13.794;2023-01-20T13:15:44;51.20;;;18.90;;
19002;SDS011;9634;51.040;13.794;2023-01-20T13:20:54;44.60;;;19.10;;
19002;SDS011;9634;51.040;13.794;2023-01-20T13:25:56;43.27;;;19.17;;
19002;SDS011;9634;51.040;13.794;2023-01-20T13:31:01;40.77;;;17.30;;
19002;SDS011;9634;51.040;13.794;2023-01-20T13:36:31;44.87;;;19.27;;
19002;SDS011;9634;51.040;13.794;2023-01-20T13:41:45;39.17;;;17.37;;
19002;SDS011;9634;51.040;13.794;2023-01-20T13:46:52;45.73;;;19.87;;
19002;SDS011;9634;51.040;13.794;2023-01-20T13:51:55;41.27;;;18.57;;
19002;SDS011;9634;51.040;13.794;2023-01-20T14:02:34;44.63;;;18.20;;
19002;SDS011;9634;51.040;13.794;2023-01-20T14:07:38;44.47;;;18.77;;
19002;SDS011;9634;51.040;13.794;2023-01-20T14:12:44;43.87;;;19.43;;
19002;SDS011;9634;51.040;13.794;2023-01-20T14:17:51;40.80;;;18.00;;
19002;SDS011;9634;51.040;13.794;2023-01-20T14:22:55;43.10;;;17.77;;
19002;SDS011;9634;51.040;13.794;2023-01-20T14:28:29;36.97;;;16.80;;
19002;SDS011;9634;51.040;13.794;2023-01-20T14:33:31;41.60;;;17.50;;
19002;SDS011;9634;51.040;13.794;2023-01-20T14:38:35;40.83;;;18.27;;
19002;SDS011;9634;51.040;13.794;2023-01-20T14:43:44;40.10;;;18.67;;
19002;SDS011;9634;51.040;13.794;2023-01-20T14:48:46;42.40;;;18.97;;
19002;SDS011;9634;51.040;13.794;2023-01-20T14:59:26;35.57;;;18.17;;
19002;SDS011;9634;51.040;13.794;2023-01-20T15:04:33;45.27;;;17.27;;
19002;SDS011;9634;51.040;13.794;2023-01-20T15:09:40;49.83;;;19.87;;
19002;SDS011;9634;51.040;13.794;2023-01-20T15:14:55;43.30;;;19.30;;
19002;SDS011;9634;51.040;13.794;2023-01-20T15:25:27;43.17;;;18.57;;
19002;SDS011;9634;51.040;13.794;2023-01-20T15:30:31;42.93;;;19.23;;
19002;SDS011;9634;51.040;13.794;2023-01-20T15:35:33;44.60;;;19.27;;
19002;SDS011;9634;51.040;13.794;2023-01-20T15:40:35;44.40;;;19.17;;
19002;SDS011;9634;51.040;13.794;2023-01-20T15:45:40;45.60;;;19.53;;
19002;SDS011;9634;51.040;13.794;2023-01-20T15:50:42;43.50;;;20.67;;
19002;SDS011;9634;51.040;13.794;2023-01-20T15:55:45;50.63;;;21.03;;
19002;SDS011;9634;51.040;13.794;2023-01-20T16:00:50;46.37;;;20.97;;
19002;SDS011;9634;51.040;13.794;2023-01-20T16:05:54;50.30;;;20.67;;
19002;SDS011;9634;51.040;13.794;2023-01-20T16:10:56;53.80;;;23.47;;
19002;SDS011;9634;51.040;13.794;2023-01-20T16:16:00;48.07;;;20.13;;
19002;SDS011;9634;51.040;13.794;2023-01-20T16:21:03;38.57;;;17.67;;
19002;SDS011;9634;51.040;13.794;2023-01-20T16:26:10;49.07;;;20.13;;
19002;SDS011;9634;51.040;13.794;2023-01-20T16:31:21;48.00;;;20.33;;
19002;SDS011;9634;51.040;13.794;2023-01-20T16:36:24;49.63;;;20.70;;
19002;SDS011;9634;51.040;13.794;2023-01-20T16:41:27;59.13;;;23.43;;
19002;SDS011;9634;51.040;13.794;2023-01-20T16:46:32;55.77;;;23.27;;
19002;SDS011;9634;51.040;13.794;2023-01-20T16:51:34;45.23;;;18.60;;
19002;SDS011;9634;51.040;13.794;2023-01-20T16:56:37;56.07;;;21.87;;
19002;SDS011;9634;51.040;13.794;2023-01-20T17:01:41;50.57;;;19.40;;
19002;SDS011;9634;51.040;13.794;2023-01-20T17:06:47;41.47;;;18.03;;
19002;SDS011;9634;51.040;13.794;2023-01-20T17:11:49;45.17;;;17.13;;
19002;SDS011;9634;51.040;13.794;2023-01-20T17:16:53;38.23;;;16.53;;
19002;SDS011;9634;51.040;13.794;2023-01-20T17:21:56;38.57;;;16.20;;
19002;SDS011;9634;51.040;13.794;2023-01-20T17:26:58;36.40;;;15.60;;
19002;SDS011;9634;51.040;13.794;2023-01-20T17:32:02;37.47;;;16.07;;
19002;SDS011;9634;51.040;13.794;2023-01-20T17:37:04;38.87;;;15.87;;
19002;SDS011;9634;51.040;13.794;2023-01-20T17:42:06;30.43;;;14.53;;
19002;SDS011;9634;51.040;13.794;2023-01-20T17:47:10;36.53;;;15.07;;
19002;SDS011;9634;51.040;13.794;2023-01-20T17:52:13;30.63;;;13.93;;
19002;SDS011;9634;51.040;13.794;2023-01-20T17:57:19;32.90;;;14.60;;
19002;SDS011;9634;51.040;13.794;2023-01-20T18:02:23;35.70;;;15.63;;
19002;SDS011;9634;51.040;13.794;2023-01-20T18:07:25;31.70;;;13.57;;
19002;SDS011;9634;51.040;13.794;2023-01-20T18:12:27;34.60;;;14.77;;
19002;SDS011;9634;51.040;13.794;2023-01-20T18:17:31;34.63;;;13.40;;
19002;SDS011;9634;51.040;13.794;2023-01-20T18:22:33;32.03;;;13.03;;
19002;SDS011;9634;51.040;13.794;2023-01-20T18:27:35;27.27;;;11.40;;
19002;SDS011;9634;51.040;13.794;2023-01-20T18:32:39;28.40;;;12.13;;
19002;SDS011;9634;51.040;13.794;2023-01-20T18:37:41;26.50;;;11.37;;
19002;SDS011;9634;51.040;13.794;2023-01-20T18:42:44;29.47;;;12.67;;
19002;SDS011;9634;51.040;13.794;2023-01-20T18:47:48;31.93;;;13.00;;
19002;SDS011;9634;51.040;13.794;2023-01-20T18:52:50;34.30;;;13.83;;
19002;SDS011;9634;51.040;13.794;2023-01-20T18:57:55;38.50;;;16.20;;
19002;SDS011;9634;51.040;13.794;2023-01-20T19:03:00;37.20;;;17.40;;
19002;SDS011;9634;51.040;13.794;2023-01-20T19:08:03;40.80;;;18.33;;
19002;SDS011;9634;51.040;13.794;2023-01-20T19:13:05;41.20;;;16.43;;
19002;SDS011;9634;51.040;13.794;2023-01-20T19:18:09;45.50;;;16.37;;
19002;SDS011;9634;51.040;13.794;2023-01-20T19:23:11;43.03;;;17.77;;
19002;SDS011;9634;51.040;13.794;2023-01-20T19:28:14;41.73;;;16.63;;
19002;SDS011;9634;51.040;13.794;2023-01-20T19:33:18;34.30;;;14.17;;
19002;SDS011;9634;51.040;13.794;2023-01-20T19:38:21;40.73;;;14.97;;
19002;SDS011;9634;51.040;13.794;2023-01-20T19:43:23;37.23;;;15.03;;
19002;SDS011;9634;51.040;13.794;2023-01-20T19:48:26;31.87;;;13.30;;
19002;SDS011;9634;51.040;13.794;2023-01-20T19:53:29;32.90;;;13.13;;
19002;SDS011;9634;51.040;13.794;2023-01-20T19:58:31;27.73;;;12.77;;
19002;SDS011;9634;51.040;13.794;2023-01-20T20:03:35;34.30;;;13.03;;
19002;SDS011;9634;51.040;13.794;2023-01-20T20:08:38;31.37;;;13.93;;
19002;SDS011;9634;51.040;13.794;2023-01-20T20:13:40;32.40;;;13.27;;
19002;SDS011;9634;51.040;13.794;2023-01-20T20:18:48;29.93;;;12.13;;
19002;SDS011;9634;51.040;13.794;2023-01-20T20:23:51;27.97;;;12.27;;
19002;SDS011;9634;51.040;13.794;2023-01-20T20:28:55;24.13;;;10.47;;
19002;SDS011;9634;51.040;13.794;2023-01-20T20:34:00;28.57;;;12.27;;
19002;SDS011;9634;51.040;13.794;2023-01-20T20:39:03;37.30;;;13.30;;
19002;SDS011;9634;51.040;13.794;2023-01-20T20:44:07;29.00;;;12.70;;
19002;SDS011;9634;51.040;13.794;2023-01-20T20:49:13;34.17;;;13.07;;
19002;SDS011;9634;51.040;13.794;2023-01-20T20:54:17;38.87;;;13.73;;
19002;SDS011;9634;51.040;13.794;2023-01-20T20:59:19;34.03;;;13.60;;
19002;SDS011;9634;51.040;13.794;2023-01-20T21:04:25;34.47;;;14.13;;
19002;SDS011;9634;51.040;13.794;2023-01-20T21:09:29;37.63;;;13.27;;
19002;SDS011;9634;51.040;13.794;2023-01-20T21:14:31;34.60;;;14.20;;
19002;SDS011;9634;51.040;13.794;2023-01-20T21:19:35;41.03;;;15.10;;
19002;SDS011;9634;51.040;13.794;2023-01-20T21:24:37;36.90;;;14.37;;
19002;SDS011;9634;51.040;13.794;2023-01-20T21:29:39;30.70;;;13.20;;
19002;SDS011;9634;51.040;13.794;2023-01-20T21:34:45;35.50;;;13.83;;
19002;SDS011;9634;51.040;13.794;2023-01-20T21:39:47;32.13;;;14.03;;
19002;SDS011;9634;51.040;13.794;2023-01-20T21:44:49;39.47;;;14.33;;
19002;SDS011;9634;51.040;13.794;2023-01-20T21:49:53;34.97;;;12.80;;
19002;SDS011;9634;51.040;13.794;2023-01-20T21:55:13;32.17;;;13.03;;
19002;SDS011;9634;51.040;13.794;2023-01-20T22:00:18;35.97;;;13.90;;
19002;SDS011;9634;51.040;13.794;2023-01-20T22:05:22;34.23;;;12.87;;
19002;SDS011;9634;51.040;13.794;2023-01-20T22:10:24;33.67;;;13.40;;
19002;SDS011;9634;51.040;13.794;2023-01-20T22:15:28;28.73;;;11.90;;
19002;SDS011;9634;51.040;13.794;2023-01-20T22:20:32;30.83;;;12.20;;
19002;SDS011;9634;51.040;13.794;2023-01-20T22:25:34;37.97;;;16.07;;
19002;SDS011;9634;51.040;13.794;2023-01-20T22:30:37;36.93;;;15.03;;
19002;SDS011;9634;51.040;13.794;2023-01-20T22:35:41;46.83;;;16.10;;
19002;SDS011;9634;51.040;13.794;2023-01-20T22:40:43;47.40;;;14.20;;
19002;SDS011;9634;51.040;13.794;2023-01-20T22:45:45;43.30;;;14.30;;
19002;SDS011;9634;51.040;13.794;2023-01-20T22:50:49;40.77;;;15.17;;
19002;SDS011;9634;51.040;13.794;2023-01-20T22:55:51;37.10;;;13.33;;
19002;SDS011;9634;51.040;13.794;2023-01-20T23:00:53;34.53;;;13.37;;
19002;SDS011;9634;51.040;13.794;2023-01-20T23:05:57;35.43;;;12.97;;
19002;SDS011;9634;51.040;13.794;2023-01-20T23:11:00;32.23;;;11.90;;
19002;SDS011;9634;51.040;13.794;2023-01-20T23:16:05;35.90;;;12.30;;
19002;SDS011;9634;51.040;13.794;2023-01-20T23:21:09;32.67;;;12.23;;
19002;SDS011;9634;51.040;13.794;2023-01-20T23:26:13;29.30;;;10.93;;
19002;SDS011;9634;51.040;13.794;2023-01-20T23:31:16;27.93;;;10.87;;
19002;SDS011;9634;51.040;13.794;2023-01-20T23:36:22;26.73;;;9.47;;
19002;SDS011;9634;51.040;13.794;2023-01-20T23:41:25;27.77;;;10.70;;
19002;SDS011;9634;51.040;13.794;2023-01-20T23:46:27;27.10;;;10.17;;
19002;SDS011;9634;51.040;13.794;2023-01-20T23:51:31;28.30;;;10.03;;
19002;SDS011;9634;51.040;13.794;2023-01-20T23:56:33;28.63;;;10.03;;
